Aviation Digital Data Service (ADDS)

Output produced by METARs form (0658 UTC 03 September 2014)
found at http://aviationweather.gov/adds/metars/
 
KCLT 030535Z 0306/0406 23004KT P6SM VCSH SCT060 BKN150 
     FM031400 23004KT P6SM FEW050 BKN250 
     FM031700 17006KT P6SM BKN050 
     PROB30 0318/0324 4SM TSRA BKN040CB 
     FM040000 16004KT P6SM BKN060